Have a Safe July 4th! 

Flight Track Log - Related Links

Times and Time Zones

All times are in EDT time to prevent confusion due to time zone crossing. See the N57AM flight status page for this flight to view local times or setup timezone preferences in your user account.

Time Position Orientation Groundspeed Altitude Reporting Facility
EDT Latitude Longitude Course Direction KTS MPH feet Rate Location/Type
Fri 09:07:19 AM 35.7517 -81.0936 314° West 154 177 4,100  Level Atlanta Center
Fri 09:08:02 AM 35.7733 -81.1208 314° West 152 175 4,500 486 Climbing Atlanta Center
Fri 09:09:10 AM 35.8075 -81.1531 323° Northwest 156 180 5,000 516 Climbing Atlanta Center
Fri 09:10:10 AM 35.8417 -81.1903 319° Northwest 150 173 5,600 550 Climbing Atlanta Center
Fri 09:11:10 AM 35.8697 -81.2278 313° West 150 173 6,100 450 Climbing Atlanta Center
Fri 09:12:10 AM 35.8936 -81.2678 306° West 145 167 6,500 450 Climbing Atlanta Center
Fri 09:13:10 AM 35.9175 -81.3106 305° West 145 167 7,000 450 Climbing Atlanta Center
Fri 09:14:10 AM 35.9411 -81.3483 308° West 150 173 7,400 450 Climbing Atlanta Center
Fri 09:15:10 AM 35.9669 -81.3886 308° West 150 173 7,900 300 Climbing Atlanta Center
Fri 09:16:10 AM 35.9908 -81.4314 305° West 150 173 8,000  Climbing Atlanta Center
Fri 09:17:10 AM 36.0169 -81.4767 305° West 160 184 7,900 -50 Descending Atlanta Center
Fri 09:18:10 AM 36.0469 -81.5219 309° West 165 190 7,900 50 Level Atlanta Center
Fri 09:19:10 AM 36.0750 -81.5647 309° West 170 196 8,000 50 Climbing Atlanta Center
Fri 09:20:10 AM 36.1031 -81.6103 307° West 170 196 8,000 -50 Level Atlanta Center
Fri 09:21:10 AM 36.1289 -81.6531 307° West 170 196 7,900 -50 Descending Atlanta Center
Fri 09:22:10 AM 36.1569 -81.6961 309° West 170 196 7,900 50 Level Atlanta Center
Fri 09:23:10 AM 36.1847 -81.7364 311° West 170 196 8,000  Climbing Atlanta Center
Fri 09:24:10 AM 36.2147 -81.7792 311° West 170 196 7,900 -50 Descending Atlanta Center
Fri 09:25:10 AM 36.2469 -81.8222 313° West 170 196 7,900  Level Atlanta Center
Fri 09:26:10 AM 36.2767 -81.8650 311° West 165 190 7,900  Level Atlanta Center
Fri 09:27:10 AM 36.3067 -81.9106 309° West 165 190 7,900  Level Atlanta Center
Fri 09:28:10 AM 36.3367 -81.9561 309° West 165 190 7,900  Level Atlanta Center
Fri 09:29:10 AM 36.3625 -82.0019 305° West 170 196 7,900  Level Atlanta Center
Fri 09:31:00 AM 36.4131 -82.0839 308° West  Level FlightAware Approximate
Fri 09:32:01 AM 36.4383 -82.1303 308° West 163 188 7,900  Level Indianapolis Center
Fri 09:33:03 AM 36.4747 -82.1803 312° West 165 190 7,900 48 Level Indianapolis Center
Fri 09:34:05 AM 36.5100 -82.2186 319° Northwest 167 192 8,000  Climbing Indianapolis Center
Fri 09:35:07 AM 36.5433 -82.2575 317° Northwest 165 190 7,900 -48 Descending Indianapolis Center
Fri 09:36:09 AM 36.5747 -82.2939 317° Northwest 157 181 7,900  Level Indianapolis Center
Fri 09:37:11 AM 36.6064 -82.3317 316° Northwest 156 180 7,900  Level Indianapolis Center
Fri 09:38:13 AM 36.6383 -82.3692 317° Northwest 158 182 7,900  Level Indianapolis Center
Fri 09:39:15 AM 36.6750 -82.4131 316° Northwest 157 181 7,900  Level Indianapolis Center
Fri 09:40:17 AM 36.7072 -82.4497 318° Northwest 157 181 7,900  Level Indianapolis Center
Fri 09:41:19 AM 36.7389 -82.4872 317° Northwest 156 180 7,900  Level Indianapolis Center
Fri 09:42:21 AM 36.7703 -82.5247 316° Northwest 157 181 7,900 49 Level Indianapolis Center
Fri 09:43:22 AM 36.8028 -82.5625 317° Northwest 158 182 8,000 49 Climbing Indianapolis Center
Fri 09:44:24 AM 36.8356 -82.6011 317° Northwest 160 184 8,000  Level Indianapolis Center
Fri 09:45:26 AM 36.8742 -82.6456 317° Northwest 162 186 8,000  Level Indianapolis Center
Fri 09:46:28 AM 36.9069 -82.6861 315° West 163 188 8,000  Level Indianapolis Center
Fri 09:47:30 AM 36.9400 -82.7239 318° Northwest 164 189 8,000  Level Indianapolis Center
Fri 09:48:32 AM 36.9722 -82.7622 316° Northwest 162 186 8,000  Level Indianapolis Center
Fri 09:49:34 AM 37.0106 -82.8083 316° Northwest 164 189 8,000  Level Indianapolis Center
Fri 09:50:36 AM 37.0436 -82.8483 316° Northwest 165 190 8,000  Level Indianapolis Center
Fri 09:51:38 AM 37.0764 -82.8869 317° Northwest 164 189 8,000  Level Indianapolis Center
Fri 09:52:40 AM 37.1092 -82.9258 317° Northwest 163 188 8,000  Level Indianapolis Center
Fri 09:53:43 AM 37.1422 -82.9656 316° Northwest 164 189 8,000  Level Indianapolis Center
Fri 09:54:45 AM 37.1808 -83.0117 316° Northwest 164 189 8,000  Level Indianapolis Center
Fri 09:55:47 AM 37.2139 -83.0511 316° Northwest 164 189 8,000  Level Indianapolis Center
Fri 09:56:49 AM 37.2475 -83.0911 317° Northwest 165 190 8,000  Level Indianapolis Center
Fri 09:57:51 AM 37.2806 -83.1308 316° Northwest 165 190 8,000  Level Indianapolis Center
Fri 09:58:53 AM 37.3131 -83.1706 316° Northwest 164 189 8,000 48 Level Indianapolis Center
Fri 09:59:55 AM 37.3519 -83.2169 317° Northwest 164 189 8,100  Climbing Indianapolis Center
Fri 10:00:57 AM 37.3856 -83.2572 316° Northwest 165 190 8,000 -48 Descending Indianapolis Center
Fri 10:01:59 AM 37.4203 -83.2967 318° Northwest 167 192 8,000 48 Level Indianapolis Center
Fri 10:03:01 AM 37.4569 -83.3361 320° Northwest 170 196 8,100  Climbing Indianapolis Center
Fri 10:04:03 AM 37.4919 -83.3750 319° Northwest 170 196 8,000  Descending Indianapolis Center
Fri 10:05:05 AM 37.5278 -83.4147 319° Northwest 170 196 8,100  Climbing Indianapolis Center
Fri 10:06:07 AM 37.5708 -83.4614 319° Northwest 172 198 8,000 -48 Descending Indianapolis Center
Fri 10:07:09 AM 37.6069 -83.5011 319° Northwest 172 198 8,000  Level Indianapolis Center
Fri 10:08:11 AM 37.6431 -83.5417 318° Northwest 173 199 8,000  Level Indianapolis Center
Fri 10:09:13 AM 37.6792 -83.5814 319° Northwest 172 198 8,000  Level Indianapolis Center
Fri 10:10:15 AM 37.7153 -83.6219 318° Northwest 173 199 8,000  Level Indianapolis Center
Fri 10:11:17 AM 37.7569 -83.6681 319° Northwest 173 199 8,000 48 Level Indianapolis Center
Fri 10:12:19 AM 37.7928 -83.7061 320° Northwest 169 194 8,100 48 Climbing Indianapolis Center
Fri 10:13:21 AM 37.8286 -83.7472 318° Northwest 171 197 8,100  Level Indianapolis Center
Fri 10:14:23 AM 37.8647 -83.7875 319° Northwest 172 198 8,100  Level Indianapolis Center
Fri 10:15:25 AM 37.9019 -83.8278 320° Northwest 174 200 8,100 -48 Level Indianapolis Center
Fri 10:16:27 AM 37.9369 -83.8683 318° Northwest 172 198 8,000 -97 Descending Indianapolis Center
Fri 10:17:29 AM 37.9803 -83.9167 319° Northwest 175 201 7,900  Descending Indianapolis Center
Fri 10:18:31 AM 38.0153 -83.9569 318° Northwest 173 199 8,000 48 Climbing Indianapolis Center
Fri 10:19:33 AM 38.0514 -83.9953 320° Northwest 171 197 8,000  Level Indianapolis Center
Fri 10:20:36 AM 38.0883 -84.0344 320° Northwest 172 198 8,000 -48 Level Indianapolis Center
Fri 10:21:38 AM 38.1233 -84.0756 317° Northwest 170 196 7,900  Descending Indianapolis Center
Fri 10:22:40 AM 38.1647 -84.1233 318° Northwest 171 197 8,000  Climbing Indianapolis Center
Fri 10:23:42 AM 38.2006 -84.1642 318° Northwest 172 198 7,900  Descending Indianapolis Center
Fri 10:24:44 AM 38.2369 -84.2039 319° Northwest 172 198 8,000 48 Climbing Indianapolis Center
Fri 10:25:46 AM 38.2725 -84.2447 318° Northwest 171 197 8,000  Level Indianapolis Center
Fri 10:26:48 AM 38.3069 -84.2842 318° Northwest 169 194 8,000  Level Indianapolis Center
Fri 10:27:50 AM 38.3450 -84.3206 323° Northwest 170 196 8,000 -48 Level Indianapolis Center
Fri 10:28:52 AM 38.3886 -84.3594 325° Northwest 167 192 7,900  Descending Indianapolis Center
Fri 10:29:54 AM 38.4208 -84.3964 318° Northwest 160 184 8,000 48 Climbing Indianapolis Center
Fri 10:30:56 AM 38.4522 -84.4375 314° West 159 183 8,000  Level Indianapolis Center
Fri 10:31:58 AM 38.4833 -84.4797 313° West 163 188 8,000 -48 Level Indianapolis Center
Fri 10:33:00 AM 38.5164 -84.5200 316° Northwest 163 188 7,900  Descending Indianapolis Center
Fri 10:34:02 AM 38.5536 -84.5672 315° West 162 186 8,000 48 Climbing Indianapolis Center
Fri 10:35:04 AM 38.5869 -84.6081 316° Northwest 164 189 8,000 -48 Level Indianapolis Center
Fri 10:36:06 AM 38.6208 -84.6464 319° Northwest 163 188 7,900  Descending Indianapolis Center
Fri 10:37:08 AM 38.6564 -84.6875 318° Northwest 160 184 8,000  Climbing Indianapolis Center
Fri 10:38:10 AM 38.6828 -84.7181 318° Northwest 160 184 7,900  Descending Indianapolis Center
Fri 10:39:12 AM 38.7247 -84.7608 321° Northwest 161 185 8,000 48 Climbing Indianapolis Center
Fri 10:40:14 AM 38.7589 -84.7972 320° Northwest 161 185 8,000  Level Indianapolis Center
Fri 10:41:16 AM 38.7906 -84.8339 318° Northwest 157 181 8,000  Level Indianapolis Center
Fri 10:42:18 AM 38.8233 -84.8694 320° Northwest 156 180 8,000  Level Indianapolis Center
Fri 10:43:20 AM 38.8656 -84.9119 322° Northwest 161 185 8,000  Level Indianapolis Center
Fri 10:44:21 AM 38.8969 -84.9503 316° Northwest 158 182 8,000  Level Indianapolis Center
Fri 10:45:23 AM 38.9264 -84.9850 317° Northwest 156 180 8,000  Level Indianapolis Center
Fri 10:46:25 AM 38.9617 -85.0206 322° Northwest 153 176 8,000 -48 Level Indianapolis Center
Fri 10:47:27 AM 38.9892 -85.0611 311° West 151 174 7,900 -48 Descending Indianapolis Center
Fri 10:48:29 AM 39.0164 -85.1014 311° West 150 173 7,900 48 Level Indianapolis Center
Fri 10:49:31 AM 39.0514 -85.1450 316° Northwest 147 169 8,000  Climbing Indianapolis Center
Fri 10:50:32 AM 39.0831 -85.1803 319° Northwest 149 171 7,900  Descending Indianapolis Center
Fri 10:51:34 AM 39.1142 -85.2172 317° Northwest 152 175 8,000  Climbing Indianapolis Center
Fri 10:52:36 AM 39.1481 -85.2547 319° Northwest 160 184 7,900 -48 Descending Indianapolis Center
Fri 10:53:38 AM 39.1797 -85.2911 318° Northwest 155 178 7,900  Level Indianapolis Center
Fri 10:54:40 AM 39.2119 -85.3272 319° Northwest 154 177 7,900  Level Indianapolis Center
Fri 10:55:42 AM 39.2506 -85.3747 316° Northwest 160 184 7,900 49 Level Indianapolis Center
Fri 10:56:43 AM 39.2822 -85.4125 317° Northwest 156 180 8,000 49 Climbing Indianapolis Center
Fri 10:57:45 AM 39.3153 -85.4508 318° Northwest 160 184 8,000  Level Indianapolis Center
Fri 10:58:47 AM 39.3492 -85.4894 319° Northwest 163 188 8,000  Level Indianapolis Center
Fri 10:59:49 AM 39.3808 -85.5264 318° Northwest 156 180 8,000  Level Indianapolis Center
Fri 11:00:50 AM 39.4128 -85.5642 318° Northwest 156 180 8,000  Level Indianapolis Center
Fri 11:01:52 AM 39.4450 -85.6044 316° Northwest 159 183 8,000 -242 Level Indianapolis Center
Fri 11:02:54 AM 39.4836 -85.6481 319° Northwest 156 180 7,500 -484 Descending Indianapolis Center
Fri 11:03:56 AM 39.5192 -85.6914 317° Northwest 168 193 7,000 -484 Descending Indianapolis Center
Fri 11:04:58 AM 39.5539 -85.7347 316° Northwest 173 199 6,500 -439 Descending Indianapolis Center
Fri 11:05:59 AM 39.5908 -85.7764 319° Northwest 175 201 6,100 -488 Descending Indianapolis Center
Fri 11:07:01 AM 39.5972 -85.8314 279° West 167 192 5,500 -532 Descending Indianapolis Center
Fri 11:08:03 AM 39.5992 -85.8881 273° West 160 184 5,000 -532 Descending Indianapolis Center
Fri 11:09:05 AM 39.6006 -85.9536 272° West 155 178 4,400 -537 Descending Indianapolis Center
Fri 11:10:06 AM 39.5989 -86.0086 268° West 154 177 3,900 -195 Descending Indianapolis Center
Fri 11:11:08 AM 39.5986 -86.0611 270° West 150 173 4,000 48 Climbing Indianapolis Center
Fri 11:12:10 AM 39.6075 -86.1069 284° West 144 166 4,000 -48 Level Indianapolis Center
Fri 11:13:12 AM 39.6408 -86.1406 322° Northwest 150 173 3,900 -73 Descending Indianapolis Center
Fri 11:13:32 AM 39.6500 -86.1500 322° Northwest 147 169 3,900 75 Level Indianapolis TRACON
Fri 11:14:32 AM 39.6833 -86.2000 311° West 143 165 4,000 50 Climbing Indianapolis TRACON
Fri 11:15:32 AM 39.7000 -86.2333 303° West 144 166 4,000 -50 Level Indianapolis TRACON
Fri 11:16:32 AM 39.7333 -86.2667 322° Northwest 145 167 3,900 -48 Descending Indianapolis TRACON
Fri 11:17:37 AM 39.7667 -86.3167 311° West 145 167 3,900  Level Indianapolis TRACON

Login

Don't have an account? Register now (free) for customized features, flight alerts, and more!